Terminal Aerodrome Forecast
Issued by NWS

Home | Current Version | Previous Version | Text Only | Print | Product List | Glossary On
Versions: 1 2 3 4 5 6 7 8 9 10 11 12 13 14 15 16 17 18 19 20 21 22 23 24 25 26 27 28 29 30
000
FTUS45 KRIW 211534 AAC
TAFCPR
TAF AMD
KCPR 211534Z 2116/2212 03012KT 5SM BR OVC005
      TEMPO 2116/2117 1 1/2SM BR OVC003
     FM211700 03012G18KT P6SM VCSH BKN013 OVC025
     FM211900 02016G24KT P6SM -SHRA OVC015
     FM220100 02013KT P6SM -SHRA OVC009=

USA.gov is the U.S. government's official web portal to all federal, state and local government web resources and services.